Koksijde Air Base

EBFN · West-Vlaanderen, Flanders, 比利时

METAR的历史 EBFN · Koksijde Air Base

下面你可以看到过去几天的METARs。 选择年份以浏览从2007年开始的旧METAR。

2024年7月21日

时间 代码 天气 温度 能见度 天花板 METAR/SPECI
14:55
V
21 °C 10 km+ - 300° 300° 11 kt METAR EBFN 211255Z 30011KT 9999 FEW018 SCT045 21/18 Q1010 BLU BLU
14:25
V
21 °C 10 km+ - 300° 300° 9 kt METAR EBFN 211225Z 30009KT 9999 FEW018 21/17 Q1010 BLU BLU
13:55
V
21 °C 10 km+ - 300° 300° 8 kt METAR EBFN 211155Z 30008KT 9999 FEW018 SCT032 21/17 Q1010 BLU BLU
13:54
V
22 °C 10 km+ - 310° 310° 7 kt METAR EBFN 211154Z 31007KT 9999 FEW018 SCT032 22/17 Q1010 BLU BLU
13:25
V
22 °C 10 km+ - 310° 310° 6 kt METAR EBFN 211125Z 31006KT 9999 FEW018 SCT032 22/17 Q1010 BLU BLU TEMPO WHT
12:55
V
21 °C 10 km+ 3.200 ft 290° 290° 8 kt METAR EBFN 211055Z 29008KT 9999 FEW018 BKN032 21/17 Q1010 BLU BLU TEMPO WHT
12:45
V
21 °C 10 km+ - 280° 280° 7 kt METAR EBFN 211045Z 28007KT 9999 FEW018 SCT032 21/17 Q1010 BLU BLU TEMPO WHT
12:25
V
21 °C 10 km+ 3.200 ft 290° 290° 9 kt METAR EBFN 211025Z 29009KT 9999 FEW018 BKN032 21/17 Q1009 BLU WHT TEMPO BLU
11:25
V
21 °C 10 km+ 30.000 ft 250° 250° 6 kt METAR EBFN 210925Z 25006KT 9999 FEW010 SCT020 BKN300 21/17 Q1009 WHT WHT TEMPO BLU
11:22
V
20 °C 10 km+ - 270° 270° 6 kt METAR EBFN 210922Z 27006KT 9999 FEW010 SCT020 20/17 Q1009 WHT WHT TEMPO BLU
10:55
M
19 °C 10 km+ 2.000 ft 280° 280° 8 kt METAR EBFN 210855Z 28008KT 9999 FEW010 BKN020 19/17 Q1009 WHT WHT
10:25
V
20 °C 10 km+ 8.000 ft 270° 270° 7 kt METAR EBFN 210825Z 27007KT 9999 FEW010 SCT012 BKN080 20/17 Q1009 GRN BLU BECMG WHT
09:55
V
20 °C 10 km+ 8.000 ft 270° 270° 8 kt METAR EBFN 210755Z 27008KT 9999 FEW008 SCT010 BKN080 20/17 Q1009 GRN BLU BECMG WHT
09:52
V
19 °C 10 km+ 8.000 ft 270° 270° 7 kt METAR EBFN 210752Z 27007KT 9999 FEW008 SCT010 BKN080 19/17 Q1009 GRN BLU BECMG WHT
09:25
V
19 °C 10 km+ 8.000 ft 270° 270° 8 kt METAR EBFN 210725Z 27008KT 9999 FEW008 SCT010 BKN080 19/17 Q1008 GRN GRN TEMPO BLU
09:08
M
19 °C 10 km+ 1.000 ft 280° 280° 9 kt METAR EBFN 210708Z 28009KT 9999 BKN010 BKN110 19/17 Q1008 GRN GRN
08:55
V
19 °C 10 km+ 11.000 ft 280° 280° 10 kt METAR EBFN 210655Z 28010KT 9999 SCT010 BKN110 19/17 Q1008 GRN GRN TEMPO BLU
08:35
V
19 °C 10 km+ 11.000 ft 280° 280° 9 kt METAR EBFN 210635Z AUTO 28009KT 9999 SCT010/// BKN110/// 19/17 Q1008 GRN
08:25
V
19 °C 10 km+ 11.000 ft 290° 290° 11 kt METAR EBFN 210625Z AUTO 29011KT 9999 FEW010/// BKN110/// 19/17 Q1008 BLU
07:55
V
19 °C 10 km+ 13.000 ft 290° 290° 10 kt METAR EBFN 210555Z AUTO 29010KT 9999 FEW110/// BKN130/// 19/17 Q1007 BLU
07:25
V
19 °C 10 km+ 10.000 ft 280° 280° 9 kt METAR EBFN 210525Z AUTO 28009KT 9999 BKN100/// 19/17 Q1007 BLU
06:55
V
18 °C 10 km+ 8.900 ft 280° 280° 15 kt METAR EBFN 210455Z AUTO 28015KT 9999 FEW046/// BKN089/// 18/17 Q1006 BLU
06:25
V
19 °C 10 km+ 4.200 ft 240° 240° 6 kt METAR EBFN 210425Z AUTO 24006KT 9999 OVC042/// 19/17 Q1007 BLU
05:55
V
19 °C 10 km+ 5.600 ft 260° 260° 5 kt METAR EBFN 210355Z AUTO 26005KT 9999 SCT044/// BKN056/// 19/17 Q1007 BLU
05:25
V
19 °C 10 km+ 4.500 ft 240° 240° 5 kt METAR EBFN 210325Z AUTO 24005KT 9999 BKN045/// BKN055/// 19/17 Q1007 BLU
04:55
V
19 °C 10 km+ 4.600 ft 260° 260° 5 kt METAR EBFN 210255Z AUTO 26005KT 9999 BKN046/// BKN069/// 19/17 Q1006 BLU
04:25
V
19 °C 10 km+ 7.100 ft 280° 280° 7 kt METAR EBFN 210225Z AUTO 28007KT 9999 FEW046/// BKN071/// 19/17 Q1006 BLU
03:55
V
19 °C 10 km+ 9.900 ft 280° 280° 7 kt METAR EBFN 210155Z AUTO 28007KT 9999 FEW070/// BKN099/// 19/17 Q1006 BLU
03:25
V
19 °C 10 km+ - 280° 280° 4 kt METAR EBFN 210125Z AUTO 28004KT 9999 FEW070/// SCT081/// 19/17 Q1006 BLU
02:55
V
18 °C 10 km+ - 280° 280° 3 kt METAR EBFN 210055Z AUTO 28003KT 9999 FEW078/// 18/17 Q1006 BLU
02:25
V
19 °C 10 km+ - Var Var 2 kt METAR EBFN 210025Z AUTO VRB02KT 9999 NCD 19/17 Q1006 BLU
01:55
V
19 °C 10 km+ - Var Var 2 kt METAR EBFN 202355Z AUTO VRB02KT 9999 NCD 19/17 Q1006 BLU
01:25
V
19 °C 10 km+ - 290° 290° 3 kt METAR EBFN 202325Z AUTO 29003KT 9999 FEW084/// 19/17 Q1006 BLU
00:55
V
19 °C 10 km+ - 290° 290° 4 kt METAR EBFN 202255Z AUTO 29004KT 9999 FEW061/// 19/17 Q1006 BLU
00:25
V
19 °C 10 km+ 5.800 ft Var Var 2 kt METAR EBFN 202225Z AUTO VRB02KT 9999 BKN058/// 19/18 Q1006 BLU

2024年7月20日

时间 代码 天气 温度 能见度 天花板 METAR/SPECI
23:55
V
19 °C 10 km+ 6.400 ft 190° 190° 3 kt METAR EBFN 202155Z AUTO 19003KT 9999 BKN064/// 19/18 Q1006 BLU
23:25
V
19 °C 10 km+ - Var Var 1 kt METAR EBFN 202125Z AUTO VRB01KT 9999 SCT061/// 19/18 Q1006 BLU
22:55
V
20 °C 10 km+ 6.500 ft Var Var 2 kt METAR EBFN 202055Z AUTO VRB02KT 9999 BKN065/// 20/17 Q1006 BLU
22:25
V
20 °C 10 km+ - 330° 330° 3 kt METAR EBFN 202025Z AUTO 33003KT 9999 SCT067/// 20/17 Q1006 BLU
21:55
V
20 °C 10 km+ - Var Var 2 kt METAR EBFN 201955Z AUTO VRB02KT 9999 FEW065/// 20/17 Q1006 BLU
21:25
V
20 °C 10 km+ - 020° 020° 5 kt METAR EBFN 201925Z AUTO 02005KT 9999 SCT100/// 20/17 Q1005 BLU
20:55
V
21 °C 10 km+ - 010° 010° 4 kt METAR EBFN 201855Z AUTO 01004KT 9999 NCD 21/17 Q1005 BLU
20:25
V
21 °C 10 km+ - 360° 360° 5 kt METAR EBFN 201825Z AUTO 36005KT 9999 NCD 21/17 Q1005 BLU
19:55
V
22 °C 10 km+ - 350° 350° 5 kt METAR EBFN 201755Z AUTO 35005KT 9999 NCD 22/16 Q1005 BLU
18:55
V
23 °C 10 km+ 24.000 ft 320° 320° 6 kt METAR EBFN 201655Z 32006KT 9999 FEW035 BKN240 23/18 Q1006 BLU BLU
18:25
V
22 °C 10 km+ 24.000 ft 310° 310° 7 kt METAR EBFN 201625Z 31007KT 9999 FEW035 BKN240 22/17 Q1006 BLU BLU
17:55
V
23 °C 10 km+ 24.000 ft 310° 310° 9 kt METAR EBFN 201555Z 31009KT 9999 FEW035 BKN240 23/17 Q1007 BLU BLU
17:25
V
23 °C 10 km+ - 300° 300° 9 kt METAR EBFN 201525Z AUTO 30009KT 9999 FEW120/// 23/18 Q1007 BLU
16:55
V
23 °C 10 km+ 12.000 ft 310° 310° 8 kt METAR EBFN 201455Z AUTO 31008KT 9999 BKN120/// 23/19 Q1007 BLU
16:25
V
22 °C 10 km+ - 310° 310° 7 kt METAR EBFN 201425Z AUTO 31007KT 9999 FEW120/// SCT150/// 22/18 Q1007 BLU
15:55
V
22 °C 10 km+ - 320° 320° 7 kt METAR EBFN 201355Z AUTO 32007KT 9999 NCD 22/19 Q1007 BLU
15:25
V
23 °C 10 km+ - 320° 320° 8 kt METAR EBFN 201325Z AUTO 32008KT 9999 NCD 23/19 Q1008 BLU
14:55
V
24 °C 10 km+ - 330° 330° 5 kt METAR EBFN 201255Z AUTO 33005KT 9999 NCD 24/19 Q1008 BLU
14:25
V
23 °C 10 km+ - 310° 310° 6 kt METAR EBFN 201225Z AUTO 31006KT 9999 NCD 23/19 Q1008 BLU
13:55
V
23 °C 10 km+ - 310° 310° 7 kt METAR EBFN 201155Z AUTO 31007KT 9999 NCD 23/18 Q1008 BLU
13:25
V
23 °C 10 km+ - 330° 330° 4 kt METAR EBFN 201125Z AUTO 33004KT 9999 NCD 23/19 Q1008 BLU
12:55
V
23 °C 10 km+ - 310° 310° 3 kt METAR EBFN 201055Z AUTO 31003KT 9999 FEW230/// 23/18 Q1009 BLU
12:25
V
23 °C 10 km+ - 290° 290° 5 kt METAR EBFN 201025Z AUTO 29005KT 9999 FEW230/// 23/18 Q1009 BLU
11:55
V
22 °C 10 km+ - 290° 290° 3 kt METAR EBFN 200955Z AUTO 29003KT 9999 SCT230/// 22/16 Q1009 BLU
11:25
V
21 °C 10 km+ - 290° 290° 6 kt METAR EBFN 200925Z AUTO 29006KT 9999 FEW066/// 21/16 Q1009 BLU
10:55
V
21 °C 10 km+ - 280° 280° 8 kt METAR EBFN 200855Z AUTO 28008KT 9999 FEW067/// 21/14 Q1010 BLU
10:25
V
22 °C 10 km+ - 280° 280° 9 kt METAR EBFN 200825Z AUTO 28009KT 9999 FEW073/// 22/11 Q1010 BLU
09:55
V
21 °C 10 km+ - 280° 280° 7 kt METAR EBFN 200755Z AUTO 28007KT 9999 FEW072/// 21/15 Q1010 BLU
09:25
V
21 °C 10 km+ - 280° 280° 9 kt METAR EBFN 200725Z AUTO 28009KT 9999 FEW079/// 21/16 Q1010 BLU
08:55
V
21 °C 10 km+ - 270° 270° 6 kt METAR EBFN 200655Z AUTO 27006KT 9999 FEW068/// SCT088/// 21/15 Q1010 BLU
08:25
V
20 °C 10 km+ 7.100 ft 270° 270° 6 kt METAR EBFN 200625Z AUTO 27006KT 9999 BKN071/// 20/16 Q1010 BLU
07:55
V
20 °C 10 km+ 7.300 ft 260° 260° 5 kt METAR EBFN 200555Z AUTO 26005KT 9999 BKN073/// 20/17 Q1010 BLU
07:25
M
19 °C 5 km 7.400 ft 240° 240° 3 kt METAR EBFN 200525Z AUTO 24003KT 5000 BKN074/// BKN100/// 19/17 Q1010 WHT
06:55
I
18 °C 3,5 km - Var Var 2 kt METAR EBFN 200455Z AUTO VRB02KT 3500 BR SCT075/// 18/17 Q1010 YLO
06:25
I
18 °C 2,7 km - Var Var 1 kt METAR EBFN 200425Z AUTO VRB01KT 2700 BR FEW075/// 18/17 Q1010 YLO
06:04
I
18 °C 3,5 km - Var Var 1 kt METAR EBFN 200404Z AUTO VRB01KT 3500 BR FEW077/// 18/16 Q1010 YLO
05:55
I
19 °C 4,4 km - 360° 360° 0 kt METAR EBFN 200355Z AUTO 00000KT 4400 BR FEW077/// 19/16 Q1010 GRN
05:41
I
18 °C 4,8 km - Var Var 1 kt METAR EBFN 200341Z AUTO VRB01KT 4800 SCT081/// 18/16 Q1010 GRN
05:25
M
19 °C 7 km 8.100 ft Var Var 2 kt METAR EBFN 200325Z AUTO VRB02KT 7000 BKN081/// 19/16 Q1010 WHT
05:20
V
19 °C 8 km 8.200 ft Var Var 2 kt METAR EBFN 200320Z AUTO VRB02KT 8000 BKN082/// 19/16 Q1010 BLU
05:09
I
19 °C 1,5 km 8.000 ft 270° 270° 3 kt METAR EBFN 200309Z AUTO 27003KT 1500 BKN080/// 19/16 Q1010 AMB
05:08
I
19 °C 3,7 km 8.000 ft 270° 270° 3 kt METAR EBFN 200308Z AUTO 27003KT 3700 BKN080/// 19/16 Q1010 GRN
04:55
V
19 °C 8 km 7.800 ft 270° 270° 3 kt METAR EBFN 200255Z AUTO 27003KT 8000 BKN078/// 19/16 Q1011 BLU
04:43
V
19 °C 10 km+ - 290° 290° 4 kt METAR EBFN 200243Z AUTO 29004KT 9999 FEW078/// 19/16 Q1011 BLU
04:25
M
19 °C 6 km - Var Var 2 kt METAR EBFN 200225Z AUTO VRB02KT 6000 FEW078/// 19/16 Q1011 WHT
03:55
M
19 °C 7 km - Var Var 2 kt METAR EBFN 200155Z AUTO VRB02KT 7000 NCD 19/16 Q1011 WHT
03:33
M
19 °C 6 km - Var Var 1 kt METAR EBFN 200133Z AUTO VRB01KT 6000 NCD 19/16 Q1011 WHT
03:25
V
19 °C 8 km - Var Var 1 kt METAR EBFN 200125Z AUTO VRB01KT 8000 NCD 19/16 Q1011 BLU
03:17
M
19 °C 6 km - Var Var 1 kt METAR EBFN 200117Z AUTO VRB01KT 6000 NCD 19/16 Q1011 WHT BLU
02:55
V
19 °C 10 km+ - 290° 290° 3 kt METAR EBFN 200055Z 29003KT 9999 SKC 19/16 Q1012 BLU BLU
02:25
V
20 °C 10 km+ - 250° 250° 3 kt METAR EBFN 200025Z 25003KT 9999 SKC 20/17 Q1012 BLU BLU
01:55
V
20 °C 10 km+ - Var Var 1 kt METAR EBFN 192355Z VRB01KT 9999 SKC 20/17 Q1012 BLU BLU
01:25
V
21 °C 10 km+ - Var Var 1 kt METAR EBFN 192325Z VRB01KT 9999 SKC 21/17 Q1012 BLU BLU
00:55
V
21 °C 10 km+ - Var Var 1 kt METAR EBFN 192255Z VRB01KT 9999 SKC 21/18 Q1013 BLU BLU
00:25
V
21 °C 10 km+ - Var Var 2 kt METAR EBFN 192225Z VRB02KT 9999 SKC 21/18 Q1013 BLU BLU

2024年7月19日

时间 代码 天气 温度 能见度 天花板 METAR/SPECI
23:55
V
21 °C 10 km+ - 110° 110° 4 kt METAR EBFN 192155Z 11004KT 9999 SCT150 21/18 Q1013 BLU BLU
23:51
V
21 °C 10 km+ - 110° 110° 4 kt METAR EBFN 192151Z 11004KT 9999 SCT150 21/18 Q1013 BLU BLU
23:25
V
22 °C 10 km+ - 100° 100° 3 kt METAR EBFN 192125Z AUTO 10003KT 9999 NCD 22/18 Q1013 BLU
23:14
L
22 °C 1,3 km - Var Var 2 kt METAR EBFN 192114Z AUTO VRB02KT 1300 NCD 22/18 Q1013 AMB
23:03
I
22 °C 2,4 km - Var Var 2 kt METAR EBFN 192103Z AUTO VRB02KT 2400 FEW160/// 22/18 Q1013 YLO
22:55
V
22 °C 10 km+ - Var Var 2 kt METAR EBFN 192055Z AUTO VRB02KT 9999 FEW160/// 22/18 Q1013 BLU
22:35
M
23 °C 7 km - 090° 090° 3 kt METAR EBFN 192035Z AUTO 09003KT 7000 FEW160/// 23/18 Q1013 WHT
22:25
V
23 °C 10 km+ - 080° 080° 4 kt METAR EBFN 192025Z AUTO 08004KT 9999 NCD 23/18 Q1013 BLU
22:22
M
23 °C 7 km - 080° 080° 4 kt METAR EBFN 192022Z AUTO 08004KT 7000 NCD 23/18 Q1013 WHT
21:55
V
24 °C 10 km+ - 080° 080° 4 kt METAR EBFN 191955Z AUTO 08004KT 9999 FEW160/// 24/19 Q1013 BLU
21:25
V
25 °C 10 km+ 16.000 ft 080° 080° 5 kt METAR EBFN 191925Z AUTO 08005KT 9999 BKN160/// 25/19 Q1013 BLU
20:55
V
26 °C 10 km+ 16.000 ft 070° 070° 5 kt METAR EBFN 191855Z AUTO 07005KT 9999 BKN160/// 26/19 Q1014 BLU
20:25
V
27 °C 10 km+ 17.000 ft 060° 060° 6 kt METAR EBFN 191825Z AUTO 06006KT 9999 BKN170/// 27/19 Q1014 BLU
19:55
V
27 °C 10 km+ - 050° 050° 6 kt METAR EBFN 191755Z AUTO 05006KT 9999 NCD 27/18 Q1014 BLU
19:25
V
27 °C 10 km+ 17.000 ft 050° 050° 6 kt METAR EBFN 191725Z AUTO 05006KT 9999 BKN170/// 27/18 Q1014 BLU
18:55
V
28 °C 10 km+ - 030° 030° 6 kt METAR EBFN 191655Z AUTO 03006KT 9999 SCT170/// 28/18 Q1014 BLU
18:25
V
28 °C 10 km+ - 030° 030° 7 kt METAR EBFN 191625Z AUTO 03007KT 9999 NCD 28/18 Q1015 BLU
17:55
V
28 °C 10 km+ - 030° 030° 6 kt METAR EBFN 191555Z 03006KT 9999 FEW055 28/18 Q1015 BLU FCST CANCEL
17:53
V
28 °C 10 km+ - 030° 030° 6 kt METAR EBFN 191553Z 03006KT 9999 FEW055 28/18 Q1015 BLU FCST CANCEL
17:25
V
28 °C 10 km+ - 030° 030° 6 kt METAR EBFN 191525Z 03006KT 9999 FEW055 28/18 Q1015 BLU BLU
16:55
V
28 °C 10 km+ - 030° 030° 6 kt METAR EBFN 191455Z 03006KT 9999 FEW055 28/16 Q1015 BLU BLU
16:25
V
28 °C 10 km+ - 010° 010° 6 kt METAR EBFN 191425Z 01006KT 9999 FEW053 28/17 Q1016 BLU BLU
15:55
V
28 °C 10 km+ - 020° 020° 6 kt METAR EBFN 191355Z 02006KT 9999 FEW053 28/16 Q1016 BLU BLU
15:25
V
28 °C 10 km+ - 360° 360° 6 kt METAR EBFN 191325Z 36006KT 9999 FEW052 28/17 Q1016 BLU BLU
14:55
V
28 °C 10 km+ - 010° 010° 8 kt METAR EBFN 191255Z 01008KT 9999 FEW052 28/17 Q1016 BLU BLU
14:25
V
27 °C 10 km+ - 360° 360° 6 kt METAR EBFN 191225Z 36006KT 9999 FEW052 27/16 Q1017 BLU BLU
13:55
V
28 °C 10 km+ - 350° 350° 5 kt METAR EBFN 191155Z 35005KT 9999 FEW052 28/18 Q1017 BLU BLU
13:25
V
27 °C 10 km+ - Var Var 1 kt METAR EBFN 191125Z VRB01KT 9999 FEW048 27/18 Q1017 BLU BLU
12:55
V
27 °C 10 km+ - Var Var 2 kt METAR EBFN 191055Z VRB02KT 9999 FEW048 27/18 Q1017 BLU BLU
12:25
V
27 °C 10 km+ - 190° 190° 3 kt METAR EBFN 191025Z 19003KT 9999 FEW160 SCT220 27/19 Q1017 BLU BLU
11:55
V
27 °C 10 km+ - Var Var 1 kt METAR EBFN 190955Z VRB01KT 9999 FEW160 SCT220 27/17 Q1017 BLU BLU
11:25
V
27 °C 10 km+ - Var Var 2 kt METAR EBFN 190925Z VRB02KT 9999 FEW160 SCT250 27/18 Q1017 BLU BLU
10:55
V
25 °C 10 km+ - Var Var 2 kt METAR EBFN 190855Z VRB02KT 9999 FEW160 SCT250 25/19 Q1017 BLU BLU
10:25
V
25 °C 10 km+ 25.000 ft 300° 300° 4 kt METAR EBFN 190825Z 30004KT 9999 FEW160 BKN250 25/18 Q1018 BLU BLU
09:55
V
23 °C 10 km+ 25.000 ft 120° 120° 4 kt METAR EBFN 190755Z 12004KT 9999 FEW160 BKN250 23/18 Q1018 BLU BLU
09:25
V
23 °C 10 km+ 25.000 ft Var Var 2 kt METAR EBFN 190725Z VRB02KT 9999 SCT150 BKN250 23/19 Q1018 BLU BLU
09:03
V
22 °C 8 km 25.000 ft 100° 100° 3 kt METAR EBFN 190703Z 10003KT 8000 SCT150 BKN250 22/18 Q1018 BLU BLU
08:55
M
22 °C 6 km 16.000 ft 110° 110° 3 kt METAR EBFN 190655Z AUTO 11003KT 6000 BKN160/// 22/18 Q1018 WHT
08:25
M
21 °C 5 km 19.000 ft Var Var 2 kt METAR EBFN 190625Z AUTO VRB02KT 5000 BKN190/// 21/18 Q1018 WHT
08:13
I
20 °C 4,6 km 20.000 ft Var Var 1 kt METAR EBFN 190613Z AUTO VRB01KT 4600 BKN200/// 20/18 Q1018 GRN WHT BECMG BLU
07:55
M
19 °C 6 km 20.000 ft Var Var 1 kt METAR EBFN 190555Z VRB01KT 6000 FEW180 BKN200 19/17 Q1018 WHT WHT BECMG BLU
报告变更